Time;durP1;ratioP1;P1;durP2;ratioP2;P2;SDS_P1;SDS_P2;PMS_P1;PMS_P2;Temp;Humidity;BMP_temperature;BMP_pressure;BME280_temperature;BME280_humidity;BME280_pressure;Samples;Min_cycle;Max_cycle;Signal;HPM_P1;HPM_P2
2022/09/09 00:01:07;;;;;;;3.10;2.37;;;;;;;-143.84;66.70;45060.50;5071455;28;20441;-71
2022/09/09 00:03:41;;;;;;;3.87;2.40;;;;;;;-143.84;66.64;45077.63;5071798;28;20440;-71
2022/09/09 00:06:21;;;;;;;4.83;2.30;;;;;;;-143.84;66.98;45066.22;5071250;28;20444;-71
2022/09/09 00:08:59;;;;;;;5.33;2.40;;;;;;;-143.84;66.94;45089.06;5071790;28;20448;-71
2022/09/09 00:11:32;;;;;;;2.40;2.20;;;;;;;-143.84;66.80;45058.59;5071462;28;20493;-71
2022/09/09 00:14:04;;;;;;;3.23;1.90;;;;;;;-143.84;66.90;45039.53;5071183;28;20449;-71
2022/09/09 00:16:37;;;;;;;1.43;1.30;;;;;;;-143.84;66.79;45071.91;5071855;28;21125;-71
2022/09/09 00:19:09;;;;;;;8.73;2.40;;;;;;;-143.84;67.03;45030.03;5071177;28;20502;-71
2022/09/09 00:21:39;;;;;;;4.70;1.90;;;;;;;-143.84;67.21;45047.16;5071140;28;20462;-71
2022/09/09 00:24:16;;;;;;;2.87;1.97;;;;;;;-143.84;67.17;45045.25;5071343;28;21192;-71
2022/09/09 00:26:49;;;;;;;7.30;2.13;;;;;;;-143.84;67.07;45068.13;5070835;28;20532;-71
2022/09/09 00:29:27;;;;;;;5.83;1.60;;;;;;;-143.84;67.21;45070.00;5071006;28;20981;-71
2022/09/09 00:31:59;;;;;;;4.73;2.20;;;;;;;-143.84;67.03;45045.25;5071176;28;21387;-71
2022/09/09 00:34:29;;;;;;;3.80;1.73;;;;;;;-143.84;67.25;45058.59;5070944;28;20499;-71
2022/09/09 00:36:58;;;;;;;4.10;1.67;;;;;;;-143.84;66.98;45056.69;5070753;28;20432;-71
2022/09/09 00:39:33;;;;;;;3.53;1.90;;;;;;;-143.84;67.04;45090.97;5070617;28;20444;-71
2022/09/09 00:42:13;;;;;;;2.20;2.00;;;;;;;-143.84;67.23;45043.34;5070931;28;20443;-71
2022/09/09 00:44:53;;;;;;;2.00;1.80;;;;;;;-143.84;67.36;45039.53;5071151;28;20441;-71
2022/09/09 00:47:40;;;;;;;1.50;1.40;;;;;;;-143.84;67.13;45064.31;5070783;28;20477;-72
2022/09/09 00:50:24;;;;;;;9.83;2.17;;;;;;;-143.84;67.11;45073.81;5071129;28;20433;-72
2022/09/09 00:53:02;;;;;;;3.47;1.67;;;;;;;-143.84;66.78;45062.41;5070629;28;20476;-72
2022/09/09 00:55:40;;;;;;;1.97;1.70;;;;;;;-143.84;66.55;45052.88;5069840;28;20449;-72
2022/09/09 00:58:08;;;;;;;2.33;1.50;;;;;;;-143.84;66.16;45077.63;5070515;28;20440;-72
2022/09/09 01:00:44;;;;;;;2.50;1.40;;;;;;;-143.84;66.13;45070.00;5070041;28;20494;-71
2022/09/09 01:03:24;;;;;;;2.90;1.60;;;;;;;-143.84;66.15;45066.22;5070681;28;20448;-71
2022/09/09 01:06:02;;;;;;;1.90;1.77;;;;;;;-143.84;65.79;45068.13;5070410;28;20517;-71
2022/09/09 01:09:02;;;;;;;3.10;1.70;;;;;;;-143.84;66.02;45052.88;5070498;28;20436;-72
2022/09/09 01:11:38;;;;;;;3.93;1.77;;;;;;;-143.84;65.96;45056.69;5060023;28;20805;-72
2022/09/09 01:14:18;;;;;;;2.77;1.43;;;;;;;-143.84;65.88;45073.81;5070441;28;20557;-72
2022/09/09 01:16:46;;;;;;;4.43;2.10;;;;;;;-143.84;66.11;45062.41;5070373;28;20517;-72
2022/09/09 01:19:24;;;;;;;2.13;1.50;;;;;;;-143.84;65.96;45039.53;5069909;28;20440;-72
2022/09/09 01:22:02;;;;;;;2.33;1.80;;;;;;;-143.84;66.13;45052.88;5069855;28;20429;-72
2022/09/09 01:24:39;;;;;;;2.10;1.80;;;;;;;-143.84;66.16;45052.88;5051582;28;20946;-72
2022/09/09 01:27:10;;;;;;;3.40;1.30;;;;;;;-143.84;66.54;45056.69;5070092;28;20830;-71
2022/09/09 01:29:37;;;;;;;2.17;1.77;;;;;;;-143.84;66.45;45050.97;5070169;28;20455;-72
2022/09/09 01:32:41;;;;;;;4.00;1.60;;;;;;;-143.84;66.36;45056.69;5070123;28;20444;-71
2022/09/09 01:35:15;;;;;;;1.20;1.10;;;;;;;-143.84;66.73;45052.88;5070053;28;20934;-71
2022/09/09 01:37:43;;;;;;;3.70;1.73;;;;;;;-143.84;66.98;45050.97;5070085;28;20448;-71
2022/09/09 01:40:10;;;;;;;2.90;1.57;;;;;;;-143.84;67.35;45068.13;5070328;28;20444;-71
2022/09/09 01:42:39;;;;;;;5.20;1.50;;;;;;;-143.84;67.35;45058.59;5069890;28;20451;-71
2022/09/09 01:45:07;;;;;;;13.97;1.70;;;;;;;-143.84;67.47;45054.78;5069741;28;20451;-71
2022/09/09 01:47:35;;;;;;;1.73;1.63;;;;;;;-143.84;67.43;45066.22;5069714;28;20561;-71
2022/09/09 01:50:04;;;;;;;2.13;1.83;;;;;;;-143.84;67.39;45054.78;5069546;28;20441;-71
2022/09/09 01:52:32;;;;;;;1.80;1.70;;;;;;;-143.84;67.50;45079.53;5069900;28;20554;-71
2022/09/09 01:54:59;;;;;;;1.70;1.60;;;;;;;-143.84;67.72;45054.78;5069902;28;20437;-72
2022/09/09 01:57:32;;;;;;;3.10;1.70;;;;;;;-143.84;67.96;45041.44;5069606;28;21084;-71
2022/09/09 02:00:07;;;;;;;3.83;1.50;;;;;;;-143.84;68.07;45045.25;5069626;28;20445;-71
2022/09/09 02:02:40;;;;;;;2.13;1.77;;;;;;;-143.84;68.07;45068.13;5069697;28;20484;-71
2022/09/09 02:05:19;;;;;;;2.80;1.60;;;;;;;-143.84;68.43;45073.81;5069494;28;20501;-71
2022/09/09 02:07:49;;;;;;;2.13;1.57;;;;;;;-143.84;68.53;45050.97;5069067;28;20441;-72
2022/09/09 02:10:21;;;;;;;3.23;1.67;;;;;;;-143.84;68.61;45068.13;5069648;28;20436;-72
2022/09/09 02:12:54;;;;;;;3.03;1.60;;;;;;;-143.84;68.96;45049.06;5069150;28;20519;-71
2022/09/09 02:15:33;;;;;;;4.00;1.90;;;;;;;-143.84;68.94;45062.41;5069462;28;20456;-72
2022/09/09 02:18:07;;;;;;;1.93;1.83;;;;;;;-143.84;69.11;45054.78;5069639;28;20486;-71
2022/09/09 02:20:34;;;;;;;4.20;1.60;;;;;;;-143.84;69.43;45066.22;5069286;28;20437;-71
2022/09/09 02:23:02;;;;;;;2.03;1.90;;;;;;;-143.84;69.71;45087.16;5069050;28;20817;-72
2022/09/09 02:25:30;;;;;;;2.80;2.33;;;;;;;-143.84;69.89;45079.53;5069079;28;20956;-71
2022/09/09 02:27:59;;;;;;;2.07;1.90;;;;;;;-143.84;70.34;45054.78;5069072;28;20514;-72
2022/09/09 02:30:30;;;;;;;5.63;1.97;;;;;;;-143.84;70.31;45071.91;5069240;28;20439;-72
2022/09/09 02:33:01;;;;;;;6.70;2.20;;;;;;;-143.84;70.71;45070.00;5069065;28;20541;-72
2022/09/09 02:35:31;;;;;;;4.60;2.00;;;;;;;-143.84;70.62;45066.22;5069258;28;20955;-71
2022/09/09 02:38:03;;;;;;;2.83;1.70;;;;;;;-143.84;70.77;45037.66;5068900;28;20441;-72
2022/09/09 02:40:30;;;;;;;11.13;1.70;;;;;;;-143.84;70.92;45022.41;5069241;28;20502;-72
2022/09/09 02:42:59;;;;;;;2.37;1.70;;;;;;;-143.84;71.01;45068.13;5068943;28;20432;-72
2022/09/09 02:45:35;;;;;;;3.80;2.13;;;;;;;-143.84;71.15;45047.16;5069071;28;20445;-72
2022/09/09 02:48:13;;;;;;;2.20;1.70;;;;;;;-143.84;71.03;45083.34;5068624;28;20476;-72
2022/09/09 02:50:50;;;;;;;2.03;1.93;;;;;;;-143.84;71.36;45045.25;5068720;28;20459;-72
2022/09/09 02:53:21;;;;;;;3.93;1.63;;;;;;;-143.84;71.50;45073.81;5068933;28;20480;-72
2022/09/09 02:55:49;;;;;;;1.70;1.60;;;;;;;-143.84;71.64;45083.34;5068777;28;20792;-72
2022/09/09 02:58:19;;;;;;;2.00;1.90;;;;;;;-143.84;71.63;45070.00;5068740;28;20433;-72
2022/09/09 03:00:50;;;;;;;2.17;1.70;;;;;;;-143.84;71.57;45066.22;5068767;28;20432;-72
2022/09/09 03:03:19;;;;;;;4.37;2.20;;;;;;;-143.84;71.63;45079.53;5068797;28;20512;-72
2022/09/09 03:05:47;;;;;;;2.43;2.03;;;;;;;-143.84;71.65;45071.91;5068020;28;20747;-72
2022/09/09 03:08:14;;;;;;;2.80;1.30;;;;;;;-143.84;71.85;45045.25;5068497;28;20447;-72
2022/09/09 03:10:42;;;;;;;6.50;1.67;;;;;;;-143.84;71.88;45060.50;5068671;28;21111;-72
2022/09/09 03:13:09;;;;;;;1.97;1.67;;;;;;;-143.84;72.02;45052.88;5068753;28;20476;-72
2022/09/09 03:15:37;;;;;;;1.53;1.33;;;;;;;-143.84;72.08;45056.69;5068871;28;20459;-72
2022/09/09 03:18:05;;;;;;;5.73;2.13;;;;;;;-143.84;72.37;45043.34;5068456;28;20445;-72
2022/09/09 03:20:32;;;;;;;3.50;1.73;;;;;;;-143.84;72.50;45071.91;5053480;28;21007;-72
2022/09/09 03:23:02;;;;;;;3.40;2.23;;;;;;;-143.84;72.88;45081.44;5072614;28;20852;-72
2022/09/09 03:25:29;;;;;;;3.20;2.23;;;;;;;-143.84;72.86;45056.69;5072791;28;20463;-71
2022/09/09 03:27:57;;;;;;;6.33;1.87;;;;;;;-143.84;72.79;45060.50;5072609;28;20428;-72
2022/09/09 03:30:25;;;;;;;2.87;2.30;;;;;;;-143.84;72.82;45068.13;5063895;28;20468;-73
2022/09/09 03:32:52;;;;;;;7.87;2.20;;;;;;;-143.84;73.13;45039.53;5052581;28;20477;-72
2022/09/09 03:35:21;;;;;;;5.17;1.80;;;;;;;-143.84;72.99;45079.53;5052468;28;20499;-73
2022/09/09 03:37:49;;;;;;;2.57;2.10;;;;;;;-143.84;73.19;45075.72;5051840;28;20500;-71
2022/09/09 03:40:16;;;;;;;4.10;1.80;;;;;;;-143.84;73.30;45089.06;5051688;28;20818;-71
2022/09/09 03:42:43;;;;;;;2.17;1.97;;;;;;;-143.84;73.41;45075.72;5034498;28;20454;-72
2022/09/09 03:45:11;;;;;;;1.83;1.73;;;;;;;-143.84;73.64;45087.16;5051886;28;20472;-72
2022/09/09 03:47:39;;;;;;;5.80;2.30;;;;;;;-143.84;73.64;45058.59;5051977;28;20680;-72
2022/09/09 03:50:08;;;;;;;3.73;2.00;;;;;;;-143.84;73.74;45071.91;5051379;28;20810;-72
2022/09/09 03:52:38;;;;;;;1.83;1.73;;;;;;;-143.84;73.74;45056.69;5051981;28;20433;-71
2022/09/09 03:55:06;;;;;;;4.07;2.13;;;;;;;-143.84;73.73;45068.13;5052067;28;20780;-71
2022/09/09 03:57:35;;;;;;;2.90;1.67;;;;;;;-143.84;73.81;45064.31;5051942;28;20460;-71
2022/09/09 04:00:04;;;;;;;10.53;2.33;;;;;;;-143.84;73.88;45062.41;5051897;28;21268;-71
2022/09/09 04:02:32;;;;;;;9.63;2.53;;;;;;;-143.84;73.87;45083.34;5034496;28;20437;-72
2022/09/09 04:04:59;;;;;;;1.93;1.60;;;;;;;-143.84;74.21;45079.53;5051355;28;20442;-72
2022/09/09 04:07:28;;;;;;;1.33;1.23;;;;;;;-143.84;74.08;45062.41;5051915;28;20473;-71
2022/09/09 04:09:57;;;;;;;4.93;2.20;;;;;;;-143.84;74.16;45071.91;5051635;28;20495;-71
2022/09/09 04:12:24;;;;;;;2.07;1.87;;;;;;;-143.84;74.14;45073.81;5052265;28;20836;-71
2022/09/09 04:14:51;;;;;;;3.20;1.80;;;;;;;-143.84;73.96;45037.66;5051593;28;20839;-71
2022/09/09 04:17:18;;;;;;;4.93;2.00;;;;;;;-143.84;73.82;45083.34;5051559;28;21440;-71
2022/09/09 04:19:46;;;;;;;5.57;2.20;;;;;;;-143.84;73.96;45071.91;5051770;28;20544;-71
2022/09/09 04:22:13;;;;;;;7.23;3.97;;;;;;;-143.84;74.13;45066.22;5052044;28;20452;-71
2022/09/09 04:24:40;;;;;;;3.57;2.47;;;;;;;-143.84;74.09;45073.81;5051600;28;20434;-71
2022/09/09 04:27:09;;;;;;;5.47;2.00;;;;;;;-143.84;73.90;45089.06;5051533;28;20453;-71
2022/09/09 04:29:36;;;;;;;4.80;1.87;;;;;;;-143.84;73.83;45079.53;5051437;28;20434;-71
2022/09/09 04:32:03;;;;;;;6.33;1.83;;;;;;;-143.84;73.88;45041.44;5051040;28;20959;-71
2022/09/09 04:34:31;;;;;;;3.57;1.93;;;;;;;-143.84;73.99;45049.06;5051038;28;20542;-71
2022/09/09 04:37:00;;;;;;;2.07;1.90;;;;;;;-143.84;73.70;45075.72;5051485;28;20461;-71
2022/09/09 04:39:27;;;;;;;3.93;1.97;;;;;;;-143.84;73.94;45081.44;5051293;28;20827;-67
2022/09/09 04:41:55;;;;;;;5.47;1.60;;;;;;;-143.84;73.67;45089.06;5051481;28;20442;-67
2022/09/09 04:44:23;;;;;;;2.17;1.93;;;;;;;-143.84;73.67;45056.69;5050951;28;20450;-67
2022/09/09 04:46:51;;;;;;;5.63;2.20;;;;;;;-143.84;73.10;45045.25;5050577;28;20481;-67
2022/09/09 04:49:18;;;;;;;2.30;1.70;;;;;;;-143.84;71.77;45056.69;5050315;28;20503;-68
2022/09/09 04:51:45;;;;;;;5.43;1.67;;;;;;;-143.84;70.32;45041.44;5050806;28;20520;-67
2022/09/09 04:54:12;;;;;;;5.33;1.80;;;;;;;-143.84;68.83;45050.97;5050582;28;20509;-67
2022/09/09 04:56:41;;;;;;;5.23;1.97;;;;;;;-143.84;68.08;45026.22;5050841;28;20959;-67
2022/09/09 04:59:09;;;;;;;11.43;2.03;;;;;;;-143.84;66.46;45049.06;5050973;28;20442;-67
2022/09/09 05:01:38;;;;;;;2.20;2.00;;;;;;;-143.84;65.13;45033.84;5050553;28;20462;-68
2022/09/09 05:04:05;;;;;;;4.50;1.70;;;;;;;-143.84;63.17;45037.66;5050736;28;20434;-68
2022/09/09 05:06:32;;;;;;;3.77;2.00;;;;;;;-143.84;61.54;45045.25;5050869;28;20430;-68
2022/09/09 05:09:00;;;;;;;3.80;1.80;;;;;;;-143.84;60.46;45005.28;5050618;28;20438;-68
2022/09/09 05:11:29;;;;;;;3.63;2.00;;;;;;;-143.84;60.09;45014.78;5050756;28;20445;-68
2022/09/09 05:13:57;;;;;;;1.63;1.37;;;;;;;-143.84;58.71;45031.94;5050905;28;20561;-71
2022/09/09 05:16:25;;;;;;;2.83;1.80;;;;;;;-143.84;57.04;45009.09;5050859;28;20922;-68
2022/09/09 05:18:53;;;;;;;6.40;1.50;;;;;;;-143.84;56.85;45014.78;5050434;28;20433;-68
2022/09/09 05:21:22;;;;;;;3.03;1.37;;;;;;;-143.84;56.23;44976.72;5050468;28;21041;-68
2022/09/09 05:23:50;;;;;;;2.87;1.50;;;;;;;-143.84;54.98;45012.88;5050784;28;20460;-68
2022/09/09 05:26:19;;;;;;;4.80;1.47;;;;;;;-143.84;55.18;45005.28;5050624;28;20500;-68
2022/09/09 06:09:58;;;;;;;7.23;1.63;;;;;;;-143.84;57.99;45016.69;4991820;27;4276511;-73
2022/09/09 06:12:27;;;;;;;2.00;1.47;;;;;;;-143.84;57.80;45010.97;5127445;28;20200;-73
2022/09/09 06:14:54;;;;;;;3.63;1.57;;;;;;;-143.84;57.17;45014.78;5127149;28;20442;-74
2022/09/09 06:17:21;;;;;;;2.27;1.40;;;;;;;-143.84;56.64;44978.63;5127515;28;20446;-73
2022/09/09 06:19:48;;;;;;;3.83;1.50;;;;;;;-143.84;55.66;44976.72;5127322;28;20851;-73
2022/09/09 06:22:16;;;;;;;1.60;1.50;;;;;;;-143.84;54.76;44940.53;5127292;28;20939;-74
2022/09/09 06:24:44;;;;;;;1.60;1.50;;;;;;;-143.84;55.26;44993.84;5127155;28;20446;-74
2022/09/09 06:27:13;;;;;;;1.83;1.13;;;;;;;-143.84;54.34;44984.31;5127140;28;20434;-73
2022/09/09 06:29:40;;;;;;;3.00;2.07;;;;;;;-143.84;55.08;44988.13;5127023;28;21077;-74
2022/09/09 06:32:08;;;;;;;9.37;1.80;;;;;;;-143.84;55.14;44982.41;5126868;28;20446;-73
2022/09/09 06:34:36;;;;;;;3.20;1.60;;;;;;;-143.84;55.69;44976.72;5126974;28;20434;-73
2022/09/09 06:37:04;;;;;;;5.37;1.60;;;;;;;-143.84;54.78;44972.91;5127287;28;20441;-73
2022/09/09 06:39:31;;;;;;;2.57;1.50;;;;;;;-143.84;54.17;44963.38;5126908;28;20437;-74
2022/09/09 06:41:58;;;;;;;2.63;1.50;;;;;;;-143.84;54.83;44986.22;5126779;28;20490;-73
2022/09/09 06:44:27;;;;;;;1.57;1.47;;;;;;;-143.84;56.08;44982.41;5126671;28;20491;-73
2022/09/09 06:46:54;;;;;;;2.80;1.67;;;;;;;-143.84;55.97;44982.41;5126712;28;20522;-73
2022/09/09 06:49:21;;;;;;;7.83;1.43;;;;;;;-143.84;54.18;44946.25;5126368;28;20470;-74
2022/09/09 06:51:49;;;;;;;4.20;1.70;;;;;;;-143.84;55.32;44950.06;5126409;28;20446;-74
2022/09/09 06:54:16;;;;;;;4.73;1.83;;;;;;;-143.84;55.06;44990.03;5126443;28;21250;-73
2022/09/09 06:56:45;;;;;;;4.43;1.87;;;;;;;-143.84;55.86;44965.28;5126559;28;20442;-73
2022/09/09 06:59:13;;;;;;;4.47;1.33;;;;;;;-143.84;55.63;44978.63;5126763;28;20794;-73
2022/09/09 07:01:43;;;;;;;3.87;1.70;;;;;;;-143.84;57.36;44963.38;5126442;28;20441;-74
2022/09/09 07:04:11;;;;;;;6.40;1.57;;;;;;;-143.84;55.80;44993.84;5126641;28;20438;-74
2022/09/09 07:06:39;;;;;;;6.10;1.30;;;;;;;-143.84;56.61;44988.13;5126392;28;21182;-74
2022/09/09 07:09:09;;;;;;;3.30;1.77;;;;;;;-143.84;56.06;44995.75;5125870;28;20562;-74
2022/09/09 07:11:41;;;;;;;2.50;1.47;;;;;;;-143.84;56.11;45003.38;5126157;28;20488;-73
2022/09/09 07:14:08;;;;;;;3.07;1.50;;;;;;;-143.84;56.85;44991.94;5126311;28;20442;-73
2022/09/09 07:16:36;;;;;;;6.40;1.60;;;;;;;-143.84;57.33;45005.28;5126593;28;20431;-74
2022/09/09 07:19:05;;;;;;;3.10;1.93;;;;;;;-143.84;58.09;44982.41;5125481;28;20438;-74
2022/09/09 07:21:33;;;;;;;1.53;1.43;;;;;;;-143.84;56.85;44984.31;5112338;28;20434;-73
2022/09/09 07:24:01;;;;;;;3.40;1.40;;;;;;;-143.84;56.56;44986.22;5112606;28;20443;-74
2022/09/09 07:26:30;;;;;;;11.30;1.70;;;;;;;-143.84;56.18;44986.22;5112404;28;20808;-74
2022/09/09 07:28:57;;;;;;;3.60;1.50;;;;;;;-143.84;57.11;44991.94;5112330;28;20865;-74
2022/09/09 07:31:26;;;;;;;2.37;1.30;;;;;;;-143.84;57.69;44984.31;5094710;28;20945;-74
2022/09/09 07:33:53;;;;;;;2.80;1.87;;;;;;;-143.84;58.89;44991.94;5091788;28;20493;-73
2022/09/09 07:36:24;;;;;;;7.87;1.70;;;;;;;-143.84;58.73;44976.72;5092097;28;20869;-74
2022/09/09 07:38:53;;;;;;;2.03;1.53;;;;;;;-143.84;58.48;44997.66;5091959;28;20451;-73
2022/09/09 07:41:23;;;;;;;3.03;1.43;;;;;;;-143.84;58.20;44976.72;5091772;28;20435;-74
2022/09/09 07:43:53;;;;;;;5.23;1.50;;;;;;;-143.84;58.01;44986.22;5092057;28;20472;-74
2022/09/09 07:46:22;;;;;;;3.40;1.43;;;;;;;-143.84;57.88;44986.22;5091629;28;20531;-73
2022/09/09 07:48:51;;;;;;;2.20;1.47;;;;;;;-143.84;57.57;44971.00;5091276;28;20475;-73
2022/09/09 07:51:22;;;;;;;7.60;1.43;;;;;;;-143.84;57.15;45007.19;5091699;28;20444;-73
2022/09/09 07:53:53;;;;;;;2.73;1.80;;;;;;;-143.84;56.31;45001.47;5091583;28;20850;-73
2022/09/09 07:56:23;;;;;;;2.13;1.30;;;;;;;-143.84;54.27;44963.38;5091365;28;20440;-73
2022/09/09 07:58:51;;;;;;;8.20;1.40;;;;;;;-143.84;56.85;44991.94;5091339;28;20452;-73
2022/09/09 08:01:20;;;;;;;2.50;1.27;;;;;;;-143.84;56.70;44972.91;5091374;28;20929;-73
2022/09/09 08:03:54;;;;;;;4.63;1.20;;;;;;;-143.84;56.05;44984.31;5091000;28;20871;-74
2022/09/09 08:06:24;;;;;;;1.77;1.40;;;;;;;-143.84;55.54;44980.53;5091164;28;20440;-73
2022/09/09 08:08:52;;;;;;;5.80;1.77;;;;;;;-143.84;54.36;44991.94;5090900;28;20491;-73
2022/09/09 08:11:20;;;;;;;2.17;1.17;;;;;;;-143.84;55.04;44988.13;5090996;28;20440;-73
2022/09/09 08:13:48;;;;;;;4.67;1.10;;;;;;;-143.84;55.86;44976.72;5091191;28;20466;-73
2022/09/09 08:16:21;;;;;;;2.13;1.40;;;;;;;-143.84;56.51;44965.28;5090828;28;20492;-73
2022/09/09 08:18:48;;;;;;;1.17;1.07;;;;;;;-143.84;55.27;44984.31;5090964;28;20952;-74
2022/09/09 08:21:18;;;;;;;4.10;1.40;;;;;;;-143.84;56.19;44982.41;5090648;28;20442;-73
2022/09/09 08:23:48;;;;;;;4.60;1.33;;;;;;;-143.84;57.46;44980.53;5090852;28;20436;-73
2022/09/09 08:26:22;;;;;;;1.80;1.70;;;;;;;-143.84;57.34;45010.97;5090536;28;20447;-73
2022/09/09 08:28:51;;;;;;;1.30;1.10;;;;;;;-143.84;57.75;44982.41;5090710;28;20524;-73
2022/09/09 08:31:21;;;;;;;2.30;1.47;;;;;;;-143.84;57.33;44974.81;5089721;28;20525;-74
2022/09/09 08:33:48;;;;;;;1.97;1.20;;;;;;;-143.84;56.92;44953.88;5090292;28;20440;-73
2022/09/09 08:36:17;;;;;;;1.10;1.00;;;;;;;-143.84;57.28;44986.22;5089699;28;20501;-73
2022/09/09 08:38:45;;;;;;;3.83;1.60;;;;;;;-143.84;58.60;45001.47;5090163;28;20448;-73
2022/09/09 08:41:40;;;;;;;3.47;1.53;;;;;;;-143.84;59.22;44988.13;5089395;28;20443;-73
2022/09/09 08:44:11;;;;;;;1.50;1.40;;;;;;;-143.84;57.59;45007.19;5086316;28;20956;-74
2022/09/09 08:46:49;;;;;;;4.90;1.50;;;;;;;-143.84;57.83;44948.16;5090393;28;21012;-73
2022/09/09 08:49:33;;;;;;;4.50;1.67;;;;;;;-143.84;56.94;44995.75;5089985;28;20482;-73
2022/09/09 08:52:01;;;;;;;4.37;1.53;;;;;;;-143.84;56.55;45003.38;5090274;28;20432;-73
2022/09/09 08:54:34;;;;;;;4.10;1.47;;;;;;;-143.84;57.71;44980.53;5089868;28;20443;-73
2022/09/09 08:57:03;;;;;;;5.47;1.40;;;;;;;-143.84;57.18;44978.63;5090138;28;20443;-73
2022/09/09 08:59:31;;;;;;;6.47;1.53;;;;;;;-143.84;57.88;44972.91;5089731;28;20443;-73
2022/09/09 09:02:15;;;;;;;3.03;1.73;;;;;;;-143.84;58.63;45010.97;5090018;28;20436;-73
2022/09/09 09:05:00;;;;;;;3.00;1.10;;;;;;;-143.84;59.28;44991.94;5090790;28;20550;-70
2022/09/09 09:07:43;;;;;;;4.23;1.93;;;;;;;-143.84;58.76;44967.19;5090295;28;20462;-70
2022/09/09 09:10:22;;;;;;;7.80;1.90;;;;;;;-143.84;59.39;44999.56;5090271;28;20491;-70
2022/09/09 09:12:51;;;;;;;9.67;2.10;;;;;;;-143.84;58.78;44991.94;5090651;28;20505;-69
2022/09/09 09:15:22;;;;;;;2.00;1.87;;;;;;;-143.84;58.23;44999.56;5090503;28;20489;-69
2022/09/09 09:17:49;;;;;;;3.10;1.17;;;;;;;-143.84;57.77;45003.38;5090407;28;20511;-70
2022/09/09 09:20:21;;;;;;;4.93;1.50;;;;;;;-143.84;56.74;44991.94;5090361;28;20804;-69
2022/09/09 09:22:52;;;;;;;3.10;1.40;;;;;;;-143.84;56.88;44976.72;5090351;28;20440;-69
2022/09/09 09:25:21;;;;;;;1.83;1.63;;;;;;;-143.84;57.65;44988.13;5090410;28;20432;-70
2022/09/09 09:28:05;;;;;;;7.47;1.53;;;;;;;-143.84;56.27;44955.75;5090328;28;20959;-70
2022/09/09 09:30:38;;;;;;;1.40;1.30;;;;;;;-143.84;56.92;45016.69;5090200;28;21084;-70
2022/09/09 09:33:16;;;;;;;7.50;1.33;;;;;;;-143.84;55.43;44974.81;5090020;28;20442;-70
2022/09/09 09:35:44;;;;;;;6.47;2.10;;;;;;;-143.84;56.34;45012.88;5090359;28;21301;-69
2022/09/09 09:38:18;;;;;;;11.10;1.57;;;;;;;-143.84;57.05;45003.38;5089412;28;20432;-72
2022/09/09 09:40:54;;;;;;;2.17;1.60;;;;;;;-143.84;54.58;44984.31;5089371;28;20497;-72
2022/09/09 09:43:26;;;;;;;1.30;1.20;;;;;;;-143.84;57.06;44993.84;5089218;28;20428;-72
2022/09/09 09:45:53;;;;;;;2.80;1.10;;;;;;;-143.84;55.14;44988.13;5089569;28;21000;-72
2022/09/09 09:48:20;;;;;;;4.50;1.20;;;;;;;-143.84;56.04;44991.94;5089466;28;20842;-72
2022/09/09 09:50:52;;;;;;;4.83;1.33;;;;;;;-143.84;56.26;44991.94;5089103;28;20475;-72
2022/09/09 09:53:23;;;;;;;4.23;1.50;;;;;;;-143.84;56.03;44969.09;5089211;28;20497;-72
2022/09/09 09:55:57;;;;;;;1.80;1.70;;;;;;;-143.84;55.59;44988.13;5089137;28;20435;-72
2022/09/09 09:58:28;;;;;;;2.27;1.30;;;;;;;-143.84;56.94;44999.56;5089060;28;20428;-72
2022/09/09 10:00:55;;;;;;;5.90;1.90;;;;;;;-143.84;58.30;44965.28;5089079;28;20443;-72
2022/09/09 10:03:26;;;;;;;4.43;1.67;;;;;;;-143.84;56.42;45007.19;5089115;28;20520;-72
2022/09/09 10:05:53;;;;;;;4.77;1.47;;;;;;;-143.84;58.82;44967.19;5088888;28;20523;-72
2022/09/09 10:08:21;;;;;;;3.43;1.40;;;;;;;-143.84;57.25;44993.84;5088640;28;20479;-72
2022/09/09 10:11:16;;;;;;;1.83;1.27;;;;;;;-143.84;57.00;44984.31;5088892;28;20472;-72
2022/09/09 10:13:57;;;;;;;3.77;1.50;;;;;;;-143.84;56.13;44976.72;5088548;28;20830;-72
2022/09/09 10:16:42;;;;;;;1.83;1.23;;;;;;;-143.84;57.85;44972.91;5088970;28;20538;-72
2022/09/09 10:19:14;;;;;;;1.60;1.30;;;;;;;-143.84;56.84;44988.13;5088815;28;20435;-72
2022/09/09 10:22:03;;;;;;;8.80;1.57;;;;;;;-143.84;57.65;44997.66;5088670;28;20509;-72
2022/09/09 10:24:48;;;;;;;2.80;1.57;;;;;;;-143.84;59.69;45003.38;5088810;28;20451;-72
2022/09/09 10:27:22;;;;;;;4.83;1.50;;;;;;;-143.84;58.91;45001.47;5088806;28;20468;-72
2022/09/09 10:30:08;;;;;;;2.63;2.10;;;;;;;-143.84;59.30;44991.94;5088724;28;20526;-72
2022/09/09 10:32:47;;;;;;;2.07;1.17;;;;;;;-143.84;60.78;45018.59;5088691;28;20478;-72
2022/09/09 10:35:25;;;;;;;3.10;1.83;;;;;;;-143.84;61.14;45005.28;5089197;28;20442;-72
2022/09/09 10:38:14;;;;;;;9.20;1.70;;;;;;;-143.84;60.78;44995.75;5088919;28;20965;-72
2022/09/09 10:40:51;;;;;;;3.53;2.23;;;;;;;-143.84;60.37;44972.91;5088534;28;20446;-72
2022/09/09 10:43:28;;;;;;;2.53;1.53;;;;;;;-143.84;60.25;44990.03;5088737;28;20456;-72
2022/09/09 10:46:07;;;;;;;1.50;1.40;;;;;;;-143.84;61.29;45018.59;5088395;28;20492;-71
2022/09/09 10:48:50;;;;;;;3.50;1.60;;;;;;;-143.84;60.44;44999.56;5088259;28;20500;-71
2022/09/09 10:51:29;;;;;;;4.53;1.73;;;;;;;-143.84;59.70;45018.59;5088350;28;20476;-71
2022/09/09 10:54:12;;;;;;;1.70;1.30;;;;;;;-143.84;61.87;45026.22;5088327;28;20533;-71
2022/09/09 10:56:43;;;;;;;7.03;1.90;;;;;;;-143.84;62.47;45018.59;5091976;28;20451;-71
2022/09/09 10:59:15;;;;;;;3.50;1.87;;;;;;;-143.84;62.14;45020.50;5092387;28;20953;-71
2022/09/09 11:01:47;;;;;;;2.13;1.37;;;;;;;-143.84;61.86;45020.50;5092482;28;20436;-71
2022/09/09 11:04:20;;;;;;;3.53;1.37;;;;;;;-143.84;61.18;44999.56;5091910;28;20496;-71
2022/09/09 11:06:53;;;;;;;2.27;1.83;;;;;;;-143.84;62.80;45012.88;5092269;28;20492;-71
2022/09/09 11:09:24;;;;;;;3.93;1.60;;;;;;;-143.84;62.49;45028.13;5091534;28;20491;-71
2022/09/09 11:11:54;;;;;;;2.13;1.77;;;;;;;-143.84;64.17;45022.41;5091939;28;20526;-71
2022/09/09 11:14:29;;;;;;;8.90;2.40;;;;;;;-143.84;64.22;45009.09;5091955;28;20608;-71
2022/09/09 11:17:01;;;;;;;2.53;1.53;;;;;;;-143.84;65.01;45018.59;5091976;28;20944;-71
2022/09/09 11:19:35;;;;;;;5.03;1.77;;;;;;;-143.84;66.58;45005.28;5091816;28;20451;-71
2022/09/09 11:22:06;;;;;;;3.83;2.00;;;;;;;-143.84;64.94;45012.88;5091893;28;20511;-71
2022/09/09 11:24:37;;;;;;;9.13;1.97;;;;;;;-143.84;64.69;45005.28;5091845;28;20502;-71
2022/09/09 11:27:11;;;;;;;4.20;1.90;;;;;;;-143.84;63.68;45026.22;5091682;28;20444;-71
2022/09/09 11:30:13;;;;;;;4.93;1.63;;;;;;;-143.84;63.11;44995.75;5091309;28;20467;-72
2022/09/09 11:33:02;;;;;;;4.00;1.73;;;;;;;-143.84;64.45;45026.22;5084772;28;20435;-71
2022/09/09 11:35:39;;;;;;;2.93;1.60;;;;;;;-143.84;63.83;45033.84;5091380;28;20447;-71
2022/09/09 11:38:22;;;;;;;1.80;1.70;;;;;;;-143.84;65.27;44991.94;5093288;28;20455;-72
2022/09/09 11:40:57;;;;;;;1.97;1.80;;;;;;;-143.84;65.08;44999.56;5090954;28;20870;-72
2022/09/09 11:43:28;;;;;;;5.23;1.63;;;;;;;-143.84;65.51;45014.78;5092411;27;20824;-72
2022/09/09 11:45:58;;;;;;;3.47;1.40;;;;;;;-143.84;65.88;44986.22;5095428;28;20470;-72
2022/09/09 11:48:33;;;;;;;3.90;2.03;;;;;;;-143.84;67.75;45020.50;5093457;28;20501;-72
2022/09/09 11:51:04;;;;;;;3.63;1.77;;;;;;;-143.84;67.10;45010.97;5094406;28;20497;-72
2022/09/09 11:53:32;;;;;;;6.70;2.10;;;;;;;-143.84;66.87;45024.31;5094344;28;21034;-72
2022/09/09 11:56:14;;;;;;;2.07;1.70;;;;;;;-143.84;67.51;45001.47;5094413;28;20452;-72
2022/09/09 11:58:55;;;;;;;6.37;1.90;;;;;;;-143.84;67.90;45003.38;5095985;28;20452;-72
2022/09/09 12:01:35;;;;;;;2.77;1.60;;;;;;;-143.84;66.19;45024.31;5093465;28;20475;-72
2022/09/09 12:04:32;;;;;;;4.40;1.30;;;;;;;-143.84;65.68;45012.88;5093509;28;20457;-72
2022/09/09 12:07:02;;;;;;;6.50;1.40;;;;;;;-143.84;66.34;45026.22;5090835;28;20448;-72
2022/09/09 12:09:43;;;;;;;2.53;1.83;;;;;;;-143.84;65.50;45026.22;5093156;28;21008;-72
2022/09/09 12:12:27;;;;;;;4.13;1.63;;;;;;;-143.84;65.88;45010.97;5094005;28;20451;-72
2022/09/09 12:15:02;;;;;;;2.40;1.20;;;;;;;-143.84;66.38;45028.13;5093673;28;20443;-72
2022/09/09 12:17:31;;;;;;;6.13;1.60;;;;;;;-143.84;66.19;45035.75;5094902;28;20880;-72
2022/09/09 12:20:10;;;;;;;1.47;1.37;;;;;;;-143.84;66.39;45010.97;5093624;28;20456;-72